Time;durP1;ratioP1;P1;durP2;ratioP2;P2;SDS_P1;SDS_P2;PMS_P1;PMS_P2;Temp;Humidity;BMP_temperature;BMP_pressure;BME280_temperature;BME280_humidity;BME280_pressure;Samples;Min_cycle;Max_cycle;Signal;HPM_P1;HPM_P2
2022/08/25 00:01:01;;;;;;;12.60;9.20;;;;;;;;;;4975117;28;20426;-40
2022/08/25 00:03:27;;;;;;;17.80;9.88;;;;;;;;;;4974791;28;20023;-43
2022/08/25 00:05:52;;;;;;;14.35;9.30;;;;;;;;;;4974751;28;20039;-40
2022/08/25 00:08:18;;;;;;;11.23;9.07;;;;;;;;;;4974928;28;20069;-40
2022/08/25 00:10:44;;;;;;;12.75;8.32;;;;;;;;;;4974831;28;20027;-40
2022/08/25 00:13:10;;;;;;;11.48;8.52;;;;;;;;;;4974858;28;20055;-40
2022/08/25 00:15:37;;;;;;;12.70;8.60;;;;;;;;;;4974501;28;20027;-41
2022/08/25 00:18:04;;;;;;;10.90;8.70;;;;;;;;;;4974490;28;20509;-41
2022/08/25 00:20:30;;;;;;;12.90;9.52;;;;;;;;;;4974343;28;20027;-41
2022/08/25 00:22:56;;;;;;;15.40;10.35;;;;;;;;;;4974420;28;20023;-40
2022/08/25 00:26:12;;;;;;;15.13;11.13;;;;;;;;;;4966560;28;20518;-42
2022/08/25 00:29:28;;;;;;;14.93;10.85;;;;;;;;;;4963656;28;20042;-44
2022/08/25 00:32:44;;;;;;;17.23;10.50;;;;;;;;;;4974251;28;20041;-45
2022/08/25 00:36:00;;;;;;;13.85;10.77;;;;;;;;;;4974482;28;20126;-42
2022/08/25 00:39:15;;;;;;;15.10;10.32;;;;;;;;;;4974184;28;20165;-41
2022/08/25 00:42:31;;;;;;;12.98;10.05;;;;;;;;;;4974231;28;20142;-41
2022/08/25 00:45:47;;;;;;;13.57;10.48;;;;;;;;;;4974140;28;20026;-41
2022/08/25 00:49:02;;;;;;;13.20;9.52;;;;;;;;;;4974007;28;20043;-41
2022/08/25 00:52:18;;;;;;;15.45;11.07;;;;;;;;;;4974208;28;20448;-46
2022/08/25 00:55:34;;;;;;;14.30;10.80;;;;;;;;;;4974167;28;20039;-46
2022/08/25 00:58:13;;;;;;;14.38;9.90;;;;;;;;;;4973959;28;20490;-41
2022/08/25 01:00:42;;;;;;;14.65;10.38;;;;;;;;;;4974091;28;20467;-43
2022/08/25 01:03:08;;;;;;;9.98;8.88;;;;;;;;;;4973882;28;20410;-42
2022/08/25 01:05:42;;;;;;;12.80;9.75;;;;;;;;;;4973776;28;20038;-43
2022/08/25 01:08:08;;;;;;;12.93;10.05;;;;;;;;;;4973994;28;20022;-41
2022/08/25 01:10:37;;;;;;;10.35;8.25;;;;;;;;;;4973914;28;20037;-42
2022/08/25 01:13:10;;;;;;;13.27;9.52;;;;;;;;;;4956278;28;20038;-44
2022/08/25 01:15:36;;;;;;;13.50;9.68;;;;;;;;;;4973756;28;20031;-42
2022/08/25 01:18:02;;;;;;;13.80;10.32;;;;;;;;;;4973641;28;20030;-43
2022/08/25 01:20:31;;;;;;;14.07;9.82;;;;;;;;;;4973843;28;20033;-41
2022/08/25 01:22:58;;;;;;;14.65;10.40;;;;;;;;;;4973971;28;20054;-42
2022/08/25 01:25:53;;;;;;;14.07;10.68;;;;;;;;;;4973598;28;20037;-41
2022/08/25 01:28:20;;;;;;;12.98;9.55;;;;;;;;;;4973452;28;20042;-43
2022/08/25 01:30:46;;;;;;;14.60;9.20;;;;;;;;;;4973752;28;20027;-43
2022/08/25 01:33:12;;;;;;;10.77;8.52;;;;;;;;;;4976609;28;20085;-43
2022/08/25 01:35:39;;;;;;;11.50;9.63;;;;;;;;;;4977780;28;20027;-41
2022/08/25 01:38:06;;;;;;;17.70;9.23;;;;;;;;;;4977506;28;20026;-42
2022/08/25 01:40:33;;;;;;;14.57;9.40;;;;;;;;;;4977702;28;20042;-41
2022/08/25 01:43:14;;;;;;;11.77;9.23;;;;;;;;;;4977317;28;20082;-43
2022/08/25 01:45:43;;;;;;;20.90;9.57;;;;;;;;;;4977551;28;20039;-43
2022/08/25 01:48:09;;;;;;;13.00;9.13;;;;;;;;;;4977218;28;20122;-41
2022/08/25 01:50:35;;;;;;;11.40;9.20;;;;;;;;;;4977261;28;20390;-41
2022/08/25 01:53:11;;;;;;;11.85;8.68;;;;;;;;;;4977463;28;20031;-43
2022/08/25 01:55:54;;;;;;;12.48;8.50;;;;;;;;;;4977279;28;20093;-43
2022/08/25 01:58:28;;;;;;;11.98;9.55;;;;;;;;;;4977433;28;20153;-45
2022/08/25 02:00:57;;;;;;;10.18;9.07;;;;;;;;;;4977075;28;20112;-47
2022/08/25 02:03:23;;;;;;;10.93;8.40;;;;;;;;;;4977197;28;20034;-42
2022/08/25 02:05:50;;;;;;;11.07;8.95;;;;;;;;;;4976992;28;20027;-41
2022/08/25 02:08:16;;;;;;;12.20;8.32;;;;;;;;;;4976866;28;20062;-43
2022/08/25 02:10:42;;;;;;;8.85;6.90;;;;;;;;;;4977143;28;20367;-40
2022/08/25 02:13:08;;;;;;;9.88;8.60;;;;;;;;;;4976826;28;20039;-43
2022/08/25 02:15:38;;;;;;;10.65;7.78;;;;;;;;;;4976742;28;20035;-43
2022/08/25 02:18:03;;;;;;;14.52;7.75;;;;;;;;;;4977035;28;20081;-44
2022/08/25 02:20:29;;;;;;;9.23;8.23;;;;;;;;;;4976925;28;20113;-45
2022/08/25 02:22:55;;;;;;;10.57;8.85;;;;;;;;;;4976562;28;20026;-42
2022/08/25 02:25:20;;;;;;;10.90;8.88;;;;;;;;;;4976591;28;20027;-41
2022/08/25 02:27:46;;;;;;;9.73;8.27;;;;;;;;;;4976550;28;20185;-43
2022/08/25 02:30:13;;;;;;;12.38;9.20;;;;;;;;;;4976803;28;20081;-44
2022/08/25 02:32:39;;;;;;;14.20;9.77;;;;;;;;;;4959342;28;20034;-44
2022/08/25 02:35:06;;;;;;;12.35;8.93;;;;;;;;;;4976438;28;20031;-42
2022/08/25 02:37:32;;;;;;;9.98;8.45;;;;;;;;;;4976642;28;20031;-43
2022/08/25 02:39:58;;;;;;;14.20;10.32;;;;;;;;;;4976378;28;20030;-42
2022/08/25 02:42:24;;;;;;;14.25;10.43;;;;;;;;;;4976607;28;20116;-41
2022/08/25 02:44:50;;;;;;;11.57;8.48;;;;;;;;;;4975174;28;20061;-42
2022/08/25 02:47:16;;;;;;;11.80;8.30;;;;;;;;;;4976390;28;20126;-42
2022/08/25 02:49:42;;;;;;;9.65;8.43;;;;;;;;;;4976061;28;20546;-42
2022/08/25 02:52:07;;;;;;;13.80;9.23;;;;;;;;;;4976410;28;20031;-42
2022/08/25 02:54:33;;;;;;;12.00;7.88;;;;;;;;;;4976071;28;20065;-42
2022/08/25 02:56:59;;;;;;;12.65;9.93;;;;;;;;;;4976332;28;20115;-42
2022/08/25 02:59:25;;;;;;;11.77;8.90;;;;;;;;;;4976011;28;20114;-47
2022/08/25 03:01:50;;;;;;;13.95;9.07;;;;;;;;;;4975898;28;20019;-45
2022/08/25 03:04:15;;;;;;;11.88;9.25;;;;;;;;;;4975879;28;20034;-42
2022/08/25 03:06:41;;;;;;;12.20;9.18;;;;;;;;;;4976126;28;20018;-41
2022/08/25 03:09:07;;;;;;;14.77;10.13;;;;;;;;;;4975983;28;20097;-44
2022/08/25 03:11:33;;;;;;;13.02;9.52;;;;;;;;;;4975843;28;20027;-43
2022/08/25 03:13:59;;;;;;;14.73;10.88;;;;;;;;;;4976028;28;20054;-44
2022/08/25 03:16:26;;;;;;;16.25;11.35;;;;;;;;;;4976044;28;20501;-43
2022/08/25 03:18:51;;;;;;;15.02;10.18;;;;;;;;;;4975611;28;20618;-44
2022/08/25 03:21:17;;;;;;;14.98;10.45;;;;;;;;;;4975893;28;20071;-41
2022/08/25 03:23:44;;;;;;;17.45;10.63;;;;;;;;;;4975602;28;20031;-42
2022/08/25 03:28:56;;;;;;;20.42;11.30;;;;;;;;;;4975322;28;20465;-40
2022/08/25 03:31:22;;;;;;;20.30;12.15;;;;;;;;;;4975564;28;20374;-40
2022/08/25 03:33:48;;;;;;;17.88;12.23;;;;;;;;;;4975665;28;20035;-40
2022/08/25 03:36:14;;;;;;;19.63;12.45;;;;;;;;;;4975334;28;20023;-42
2022/08/25 03:38:40;;;;;;;19.98;12.32;;;;;;;;;;4975496;28;20159;-42
2022/08/25 03:41:20;;;;;;;16.80;11.65;;;;;;;;;;4975250;28;20023;-42
2022/08/25 03:43:46;;;;;;;17.90;11.90;;;;;;;;;;4975493;28;20395;-42
2022/08/25 03:46:21;;;;;;;16.35;11.43;;;;;;;;;;4975384;28;20034;-42
2022/08/25 03:48:47;;;;;;;15.32;11.02;;;;;;;;;;4975136;28;20019;-44
2022/08/25 03:51:20;;;;;;;13.73;10.52;;;;;;;;;;4975197;28;20378;-41
2022/08/25 03:53:46;;;;;;;21.35;10.77;;;;;;;;;;4975387;28;20026;-40
2022/08/25 03:56:12;;;;;;;15.15;11.50;;;;;;;;;;4974831;28;20379;-40
2022/08/25 03:58:37;;;;;;;15.50;10.63;;;;;;;;;;4974925;28;20023;-42
2022/08/25 04:01:03;;;;;;;14.05;10.13;;;;;;;;;;4974885;28;20030;-42
2022/08/25 04:03:28;;;;;;;15.13;10.55;;;;;;;;;;4974808;28;20026;-42
2022/08/25 04:05:54;;;;;;;13.10;9.63;;;;;;;;;;4974800;28;20030;-46
2022/08/25 04:08:19;;;;;;;17.15;10.27;;;;;;;;;;4974644;28;20027;-43
2022/08/25 04:10:45;;;;;;;14.80;9.85;;;;;;;;;;4974564;28;20066;-41
2022/08/25 04:13:11;;;;;;;13.55;10.75;;;;;;;;;;4974606;28;20030;-45
2022/08/25 04:15:42;;;;;;;16.23;9.95;;;;;;;;;;4974822;28;20031;-46
2022/08/25 04:18:07;;;;;;;13.02;9.10;;;;;;;;;;4974600;28;20510;-47
2022/08/25 04:20:32;;;;;;;10.70;8.45;;;;;;;;;;4974743;28;20031;-44
2022/08/25 04:23:01;;;;;;;12.38;9.88;;;;;;;;;;4957430;28;20415;-47
2022/08/25 04:25:27;;;;;;;11.90;8.68;;;;;;;;;;4974414;28;20023;-46
2022/08/25 04:27:54;;;;;;;13.75;9.52;;;;;;;;;;4974304;28;20038;-41
2022/08/25 04:30:20;;;;;;;11.40;8.63;;;;;;;;;;4974283;28;20042;-46
2022/08/25 04:32:47;;;;;;;13.00;8.35;;;;;;;;;;4974326;28;20089;-45
2022/08/25 04:35:13;;;;;;;10.40;8.43;;;;;;;;;;4974248;28;20023;-42
2022/08/25 04:37:38;;;;;;;13.93;7.85;;;;;;;;;;4974303;28;20125;-42
2022/08/25 04:40:05;;;;;;;10.40;8.50;;;;;;;;;;4974157;28;20034;-47
2022/08/25 04:42:30;;;;;;;10.18;8.23;;;;;;;;;;4973954;28;20390;-44
2022/08/25 04:44:56;;;;;;;14.50;8.38;;;;;;;;;;4974183;28;20026;-42
2022/08/25 04:47:22;;;;;;;9.43;8.02;;;;;;;;;;4974305;28;20030;-41
2022/08/25 04:49:48;;;;;;;9.25;8.02;;;;;;;;;;4956600;28;20506;-45
2022/08/25 04:52:13;;;;;;;12.25;8.63;;;;;;;;;;4974171;28;20114;-43
2022/08/25 04:54:39;;;;;;;15.23;8.45;;;;;;;;;;4973958;28;20462;-41
2022/08/25 04:57:05;;;;;;;13.00;8.52;;;;;;;;;;4973812;28;20031;-41
2022/08/25 04:59:30;;;;;;;16.17;9.30;;;;;;;;;;4956763;28;20037;-43
2022/08/25 05:01:57;;;;;;;11.60;9.70;;;;;;;;;;4973794;28;20023;-42
2022/08/25 05:04:23;;;;;;;14.75;10.35;;;;;;;;;;4974094;28;20459;-41
2022/08/25 05:06:48;;;;;;;15.48;10.30;;;;;;;;;;4973303;28;20050;-42
2022/08/25 05:09:14;;;;;;;16.42;10.15;;;;;;;;;;4973652;28;20026;-45
2022/08/25 05:11:39;;;;;;;13.65;10.00;;;;;;;;;;4956461;28;20035;-46
2022/08/25 05:14:10;;;;;;;14.43;9.93;;;;;;;;;;4973946;28;20441;-47
2022/08/25 05:16:36;;;;;;;18.90;10.80;;;;;;;;;;4973766;28;20038;-46
2022/08/25 05:19:01;;;;;;;13.13;10.48;;;;;;;;;;4973705;28;20367;-45
2022/08/25 05:21:28;;;;;;;15.10;10.35;;;;;;;;;;4973639;28;20038;-49
2022/08/25 05:23:56;;;;;;;12.23;10.13;;;;;;;;;;4956261;28;20442;-48
2022/08/25 05:26:23;;;;;;;13.23;10.60;;;;;;;;;;4973479;28;20038;-42
2022/08/25 05:28:50;;;;;;;13.27;10.55;;;;;;;;;;4973331;28;20129;-47
2022/08/25 05:31:17;;;;;;;17.45;10.73;;;;;;;;;;4973430;28;20501;-45
2022/08/25 05:33:43;;;;;;;16.80;10.98;;;;;;;;;;4973718;28;20039;-43
2022/08/25 05:36:10;;;;;;;14.02;11.25;;;;;;;;;;4956191;28;20484;-48
2022/08/25 05:38:36;;;;;;;17.50;11.02;;;;;;;;;;4973408;28;20546;-45
2022/08/25 05:41:09;;;;;;;13.77;11.23;;;;;;;;;;4973663;28;20364;-46
2022/08/25 05:43:39;;;;;;;15.40;11.30;;;;;;;;;;4973734;28;20022;-47
2022/08/25 05:46:05;;;;;;;18.63;10.82;;;;;;;;;;4973664;28;20027;-50
2022/08/25 05:48:32;;;;;;;16.00;10.68;;;;;;;;;;4973623;28;20078;-44
2022/08/25 05:51:00;;;;;;;14.18;10.65;;;;;;;;;;4973243;28;20073;-47
2022/08/25 05:53:27;;;;;;;18.80;11.27;;;;;;;;;;4973485;28;20035;-47
2022/08/25 05:55:55;;;;;;;13.70;11.50;;;;;;;;;;4973555;28;20110;-47
2022/08/25 05:58:22;;;;;;;17.63;10.98;;;;;;;;;;4973292;28;20316;-44
2022/08/25 06:00:48;;;;;;;16.05;11.35;;;;;;;;;;4973279;28;20030;-45
2022/08/25 06:03:14;;;;;;;16.15;10.15;;;;;;;;;;4973054;28;20102;-44
2022/08/25 06:05:40;;;;;;;13.70;10.48;;;;;;;;;;4955693;28;20118;-48
2022/08/25 06:08:05;;;;;;;16.33;10.63;;;;;;;;;;4973412;28;20027;-43
2022/08/25 06:10:31;;;;;;;16.80;9.85;;;;;;;;;;4972986;28;20398;-48
2022/08/25 06:12:57;;;;;;;14.93;9.60;;;;;;;;;;4973105;28;20039;-47
2022/08/25 06:15:24;;;;;;;20.40;9.98;;;;;;;;;;4973142;28;20077;-47
2022/08/25 06:17:50;;;;;;;15.45;9.55;;;;;;;;;;4973756;28;20019;-46
2022/08/25 06:20:22;;;;;;;10.68;9.20;;;;;;;;;;4976841;28;20031;-44
2022/08/25 06:22:51;;;;;;;11.10;8.10;;;;;;;;;;4976928;28;20118;-47
2022/08/25 06:25:20;;;;;;;11.13;8.10;;;;;;;;;;4976538;28;20025;-42
2022/08/25 06:27:45;;;;;;;;;;;;;;;;;;4977374;28;20034;-46
2022/08/25 06:30:14;;;;;;;14.18;9.13;;;;;;;;;;4976303;28;19918;-48
2022/08/25 06:32:41;;;;;;;16.53;8.60;;;;;;;;;;4976467;28;20054;-46
2022/08/25 06:35:10;;;;;;;14.43;8.55;;;;;;;;;;4976602;28;20026;-47
2022/08/25 06:37:36;;;;;;;10.95;7.93;;;;;;;;;;4976634;28;20035;-44
2022/08/25 06:40:04;;;;;;;12.13;7.60;;;;;;;;;;4976328;28;20037;-46
2022/08/25 06:42:29;;;;;;;12.32;7.78;;;;;;;;;;4976533;28;20035;-50
2022/08/25 06:44:55;;;;;;;13.40;7.88;;;;;;;;;;4976547;28;20046;-47
2022/08/25 06:47:20;;;;;;;9.93;7.53;;;;;;;;;;4976172;28;20479;-46
2022/08/25 06:49:46;;;;;;;12.15;7.50;;;;;;;;;;4976052;28;20085;-47
2022/08/25 06:52:12;;;;;;;12.93;7.95;;;;;;;;;;4976034;28;20027;-47
2022/08/25 06:54:38;;;;;;;17.65;8.52;;;;;;;;;;4975967;28;20126;-46
2022/08/25 06:57:05;;;;;;;14.95;7.95;;;;;;;;;;4976192;28;20054;-42
2022/08/25 06:59:32;;;;;;;13.68;8.25;;;;;;;;;;4976259;28;20026;-48
2022/08/25 07:01:58;;;;;;;8.88;7.07;;;;;;;;;;4975884;28;20018;-45
2022/08/25 07:04:24;;;;;;;13.45;7.00;;;;;;;;;;4975838;28;20111;-49
2022/08/25 07:06:49;;;;;;;12.13;6.90;;;;;;;;;;4975742;28;20034;-48
2022/08/25 07:09:17;;;;;;;13.98;8.32;;;;;;;;;;4975737;28;20069;-47
2022/08/25 07:11:44;;;;;;;12.88;7.20;;;;;;;;;;4976064;28;20027;-46
2022/08/25 07:14:11;;;;;;;15.13;6.53;;;;;;;;;;4975949;28;20045;-48
2022/08/25 07:16:38;;;;;;;11.27;7.03;;;;;;;;;;4975583;28;20031;-48
2022/08/25 07:19:05;;;;;;;11.13;7.32;;;;;;;;;;4975687;28;20042;-44
2022/08/25 07:21:32;;;;;;;10.30;6.30;;;;;;;;;;4975968;28;20378;-49
2022/08/25 07:23:59;;;;;;;11.48;6.82;;;;;;;;;;4975817;28;20039;-47
2022/08/25 07:26:27;;;;;;;14.15;7.38;;;;;;;;;;4975445;28;20110;-50
2022/08/25 07:28:53;;;;;;;11.67;7.00;;;;;;;;;;4975027;28;20121;-49
2022/08/25 07:31:18;;;;;;;11.02;7.10;;;;;;;;;;4972968;28;20380;-47
2022/08/25 07:36:30;;;;;;;13.50;6.32;;;;;;;;;;4975157;28;20041;-47
2022/08/25 07:38:58;;;;;;;8.63;5.57;;;;;;;;;;4974958;28;20018;-42
2022/08/25 07:41:25;;;;;;;9.93;5.80;;;;;;;;;;4975001;28;20386;-48
2022/08/25 07:43:51;;;;;;;9.70;5.65;;;;;;;;;;4975135;28;20030;-45
2022/08/25 07:46:16;;;;;;;10.55;4.85;;;;;;;;;;4974666;28;20022;-47
2022/08/25 07:48:42;;;;;;;13.98;4.88;;;;;;;;;;4975215;28;20097;-51
2022/08/25 07:51:10;;;;;;;12.30;4.93;;;;;;;;;;4975119;28;20031;-46
2022/08/25 07:53:36;;;;;;;11.83;5.33;;;;;;;;;;4975135;28;20110;-43
2022/08/25 07:56:02;;;;;;;13.02;4.65;;;;;;;;;;4974792;28;20443;-47
2022/08/25 07:58:27;;;;;;;13.25;4.65;;;;;;;;;;4974630;28;20031;-44
2022/08/25 08:00:53;;;;;;;8.23;4.38;;;;;;;;;;4974552;28;20030;-47
2022/08/25 08:03:20;;;;;;;8.65;4.28;;;;;;;;;;4957378;28;20061;-44
2022/08/25 08:05:46;;;;;;;8.55;4.63;;;;;;;;;;4974514;28;20090;-45
2022/08/25 08:08:12;;;;;;;10.52;4.55;;;;;;;;;;4974864;28;20081;-49
2022/08/25 08:10:41;;;;;;;10.23;3.85;;;;;;;;;;4973615;28;20026;-47
2022/08/25 08:13:08;;;;;;;5.38;3.90;;;;;;;;;;4974735;28;20023;-46
2022/08/25 08:15:35;;;;;;;12.77;5.00;;;;;;;;;;4974815;28;20368;-46
2022/08/25 08:18:01;;;;;;;9.10;4.45;;;;;;;;;;4974771;28;20105;-49
2022/08/25 08:20:27;;;;;;;9.77;4.03;;;;;;;;;;4974557;28;20484;-47
2022/08/25 08:22:53;;;;;;;7.28;3.90;;;;;;;;;;4974708;28;20383;-45
2022/08/25 08:25:19;;;;;;;7.22;3.72;;;;;;;;;;4974421;28;20022;-50
2022/08/25 08:27:45;;;;;;;5.60;3.85;;;;;;;;;;4974452;28;20038;-47
2022/08/25 08:30:12;;;;;;;8.48;3.97;;;;;;;;;;4974099;28;20466;-47
2022/08/25 08:32:37;;;;;;;7.55;3.40;;;;;;;;;;4974180;28;20033;-45
2022/08/25 08:35:04;;;;;;;6.40;3.60;;;;;;;;;;4974089;28;20387;-42
2022/08/25 08:37:30;;;;;;;5.07;3.50;;;;;;;;;;4974355;28;20097;-45
2022/08/25 08:39:56;;;;;;;5.85;3.70;;;;;;;;;;4974345;28;20027;-45
2022/08/25 08:42:44;;;;;;;6.28;3.63;;;;;;;;;;4974232;28;20386;-43
2022/08/25 08:45:31;;;;;;;6.85;3.50;;;;;;;;;;4974121;28;20395;-44
2022/08/25 08:48:39;;;;;;;8.68;3.35;;;;;;;;;;4973840;28;20066;-48
2022/08/25 08:51:22;;;;;;;8.88;3.10;;;;;;;;;;4952518;28;20051;-49
2022/08/25 08:53:57;;;;;;;7.05;3.88;;;;;;;;;;4974133;28;20058;-48
2022/08/25 08:56:46;;;;;;;6.03;3.08;;;;;;;;;;4973837;28;20117;-46
2022/08/25 08:59:30;;;;;;;6.45;3.50;;;;;;;;;;4967175;28;20114;-45
2022/08/25 09:01:58;;;;;;;5.65;3.08;;;;;;;;;;4973755;28;20387;-49
2022/08/25 09:04:35;;;;;;;6.80;3.70;;;;;;;;;;4973878;28;20027;-46
2022/08/25 09:07:05;;;;;;;4.53;3.05;;;;;;;;;;4993001;28;20092;-47
2022/08/25 09:09:34;;;;;;;6.13;3.20;;;;;;;;;;4993265;28;20035;-43
2022/08/25 09:12:14;;;;;;;6.95;3.35;;;;;;;;;;4992991;28;20026;-45
2022/08/25 09:14:51;;;;;;;7.18;3.70;;;;;;;;;;4992855;28;20488;-45
2022/08/25 09:17:23;;;;;;;4.88;3.22;;;;;;;;;;4993232;28;20022;-46
2022/08/25 09:20:14;;;;;;;4.28;3.08;;;;;;;;;;4992727;28;20034;-45
2022/08/25 09:23:03;;;;;;;8.57;3.13;;;;;;;;;;4974579;28;20550;-47
2022/08/25 09:25:37;;;;;;;7.38;3.30;;;;;;;;;;4992176;28;20033;-45
2022/08/25 09:28:17;;;;;;;7.43;3.17;;;;;;;;;;4991282;28;20121;-47
2022/08/25 09:31:00;;;;;;;5.55;3.15;;;;;;;;;;4990903;28;20069;-47
2022/08/25 09:33:28;;;;;;;11.95;2.88;;;;;;;;;;4991545;28;20155;-45
2022/08/25 09:35:55;;;;;;;7.80;3.53;;;;;;;;;;4991111;28;20432;-49
2022/08/25 09:38:21;;;;;;;7.70;3.40;;;;;;;;;;4990801;28;20387;-45
2022/08/25 09:40:50;;;;;;;8.20;3.10;;;;;;;;;;4991064;28;20085;-46
2022/08/25 09:43:30;;;;;;;6.97;3.30;;;;;;;;;;4990897;28;20433;-45
2022/08/25 09:46:23;;;;;;;4.97;2.88;;;;;;;;;;4990926;28;20034;-44
2022/08/25 09:48:52;;;;;;;6.82;3.33;;;;;;;;;;4991429;28;20108;-48
2022/08/25 09:51:32;;;;;;;10.82;3.28;;;;;;;;;;4991175;28;20041;-48
2022/08/25 09:54:13;;;;;;;8.95;3.50;;;;;;;;;;4993565;28;20037;-47
2022/08/25 09:56:52;;;;;;;11.63;2.80;;;;;;;;;;4995143;28;20038;-46
2022/08/25 09:59:18;;;;;;;;;;;;;;;;;;4995405;28;20513;-44
2022/08/25 10:01:55;;;;;;;5.28;2.55;;;;;;;;;;4995189;28;19910;-45
2022/08/25 10:04:28;;;;;;;3.08;2.53;;;;;;;;;;4995062;28;20104;-42
2022/08/25 10:06:54;;;;;;;7.00;2.90;;;;;;;;;;4994860;28;20026;-42
2022/08/25 10:09:50;;;;;;;3.35;2.83;;;;;;;;;;4994922;28;20038;-46
2022/08/25 10:12:23;;;;;;;6.78;2.92;;;;;;;;;;4990968;28;20042;-43
2022/08/25 10:14:49;;;;;;;4.47;2.90;;;;;;;;;;4994993;28;20446;-40
2022/08/25 10:17:26;;;;;;;23.83;4.65;;;;;;;;;;4994893;28;20033;-41
2022/08/25 10:19:53;;;;;;;8.07;3.10;;;;;;;;;;4994871;28;20049;-41
2022/08/25 10:22:31;;;;;;;7.38;3.10;;;;;;;;;;4994685;28;20027;-46
2022/08/25 10:25:00;;;;;;;6.95;3.03;;;;;;;;;;4994482;28;20085;-47
2022/08/25 10:27:25;;;;;;;;;;;;;;;;;;4994959;28;20100;-45
2022/08/25 10:30:06;;;;;;;8.20;3.23;;;;;;;;;;4994163;28;19917;-46
2022/08/25 10:32:50;;;;;;;6.78;3.30;;;;;;;;;;4994306;28;20031;-45
2022/08/25 10:35:57;;;;;;;7.50;2.92;;;;;;;;;;4994187;28;20034;-45
2022/08/25 10:38:43;;;;;;;4.70;2.75;;;;;;;;;;4992195;28;20065;-39
2022/08/25 10:41:18;;;;;;;7.43;3.10;;;;;;;;;;4994145;28;20022;-39
2022/08/25 10:43:56;;;;;;;6.00;3.22;;;;;;;;;;4994308;28;20077;-43
2022/08/25 10:46:24;;;;;;;8.25;3.60;;;;;;;;;;4994178;28;20034;-40
2022/08/25 10:49:08;;;;;;;5.78;3.65;;;;;;;;;;4994114;28;20040;-44
2022/08/25 10:51:48;;;;;;;5.85;3.03;;;;;;;;;;4994196;28;20114;-40
2022/08/25 10:54:43;;;;;;;6.18;2.80;;;;;;;;;;4994060;28;20038;-43
2022/08/25 10:57:20;;;;;;;8.48;3.38;;;;;;;;;;4994058;28;20034;-46
2022/08/25 11:00:08;;;;;;;5.88;3.17;;;;;;;;;;4993944;28;20104;-43
2022/08/25 11:02:43;;;;;;;6.13;3.20;;;;;;;;;;4993833;28;20042;-43
2022/08/25 11:05:12;;;;;;;9.40;3.08;;;;;;;;;;4992644;28;20536;-49
2022/08/25 11:07:44;;;;;;;23.58;4.43;;;;;;;;;;4993754;28;20184;-45
2022/08/25 11:10:19;;;;;;;6.25;3.28;;;;;;;;;;4993707;28;20077;-46
2022/08/25 11:12:55;;;;;;;7.75;3.10;;;;;;;;;;4993416;28;20367;-40
2022/08/25 11:15:32;;;;;;;9.07;2.88;;;;;;;;;;4993784;28;20045;-48
2022/08/25 11:18:11;;;;;;;7.82;3.20;;;;;;;;;;4993798;28;20077;-43
2022/08/25 11:20:42;;;;;;;8.05;2.70;;;;;;;;;;4993450;28;20026;-49
2022/08/25 11:23:22;;;;;;;13.18;4.50;;;;;;;;;;4993333;28;20108;-47
2022/08/25 11:26:00;;;;;;;7.78;3.53;;;;;;;;;;4993220;28;20076;-48
2022/08/25 11:28:29;;;;;;;9.10;3.40;;;;;;;;;;4993355;28;20062;-47
2022/08/25 11:30:58;;;;;;;6.03;3.00;;;;;;;;;;4993475;28;20397;-45
2022/08/25 11:33:24;;;;;;;;;;;;;;;;;;4993551;28;20034;-44
2022/08/25 11:35:57;;;;;;;14.98;3.30;;;;;;;;;;4993289;28;19971;-44
2022/08/25 11:38:45;;;;;;;14.15;3.78;;;;;;;;;;4993503;28;20030;-49
2022/08/25 11:41:26;;;;;;;7.32;3.25;;;;;;;;;;4993221;28;20382;-45
2022/08/25 11:44:16;;;;;;;10.43;4.10;;;;;;;;;;4992998;28;20569;-42
2022/08/25 11:47:16;;;;;;;9.48;4.40;;;;;;;;;;4980621;28;20489;-46
2022/08/25 11:49:57;;;;;;;14.85;3.45;;;;;;;;;;4931089;29;20649;-49
2022/08/25 11:52:31;;;;;;;8.82;3.58;;;;;;;;;;4953905;29;20383;-43
2022/08/25 11:55:52;;;;;;;9.38;3.10;;;;;;;;;;4954010;29;20379;-43
2022/08/25 11:58:39;;;;;;;17.38;3.70;;;;;;;;;;4875683;29;20040;-46
2022/08/25 12:01:08;;;;;;;6.82;3.30;;;;;;;;;;4875838;29;20044;-47
2022/08/25 12:03:33;;;;;;;11.27;3.33;;;;;;;;;;4925007;29;20047;-49
2022/08/25 12:06:28;;;;;;;8.20;4.00;;;;;;;;;;4954142;29;20039;-47
2022/08/25 12:08:59;;;;;;;8.88;4.47;;;;;;;;;;4953696;29;20035;-41
2022/08/25 12:11:38;;;;;;;9.20;3.92;;;;;;;;;;4953643;29;20503;-44
2022/08/25 12:14:37;;;;;;;9.57;3.70;;;;;;;;;;4953610;29;20039;-46
2022/08/25 12:17:16;;;;;;;14.20;4.13;;;;;;;;;;4953511;28;20514;-45
2022/08/25 12:19:41;;;;;;;11.75;4.15;;;;;;;;;;4953483;29;20046;-42
2022/08/25 12:22:07;;;;;;;10.65;4.50;;;;;;;;;;4953949;29;20031;-39
2022/08/25 12:24:41;;;;;;;10.32;4.43;;;;;;;;;;4953432;29;20510;-45
2022/08/25 12:27:44;;;;;;;6.60;3.40;;;;;;;;;;4953831;29;20031;-45
2022/08/25 12:30:12;;;;;;;7.63;3.17;;;;;;;;;;4953214;29;20507;-42
2022/08/25 12:33:08;;;;;;;7.70;2.95;;;;;;;;;;4953786;29;20061;-42
2022/08/25 12:35:56;;;;;;;12.77;3.25;;;;;;;;;;4953350;29;20117;-42
2022/08/25 12:38:37;;;;;;;8.02;2.92;;;;;;;;;;4952115;29;20390;-44
2022/08/25 12:41:13;;;;;;;14.27;6.10;;;;;;;;;;4953109;29;20462;-41
2022/08/25 12:43:47;;;;;;;13.13;5.22;;;;;;;;;;4951959;29;20479;-45
2022/08/25 12:46:22;;;;;;;7.70;3.47;;;;;;;;;;4952896;29;20390;-44
2022/08/25 12:49:28;;;;;;;11.63;3.70;;;;;;;;;;4953030;29;20035;-45
2022/08/25 12:52:03;;;;;;;5.97;3.67;;;;;;;;;;4953041;29;20035;-43
2022/08/25 12:54:57;;;;;;;14.70;3.40;;;;;;;;;;4953127;29;20550;-41
2022/08/25 12:57:45;;;;;;;7.90;3.50;;;;;;;;;;4953168;29;20106;-45
2022/08/25 13:00:23;;;;;;;5.28;3.40;;;;;;;;;;4953301;29;20063;-41
2022/08/25 13:03:06;;;;;;;7.20;3.88;;;;;;;;;;4953277;29;20039;-42
2022/08/25 13:06:05;;;;;;;10.10;3.42;;;;;;;;;;4952998;29;20478;-41
2022/08/25 13:08:52;;;;;;;8.45;3.17;;;;;;;;;;4953128;29;20077;-41
2022/08/25 13:11:26;;;;;;;11.02;3.00;;;;;;;;;;4953210;29;20071;-47
2022/08/25 13:14:16;;;;;;;10.85;3.67;;;;;;;;;;4953098;29;20125;-38
2022/08/25 13:16:51;;;;;;;6.13;3.00;;;;;;;;;;4952649;29;20031;-42
2022/08/25 13:19:18;;;;;;;9.57;3.33;;;;;;;;;;4952822;29;20027;-42
2022/08/25 13:21:44;;;;;;;6.32;2.90;;;;;;;;;;4953054;29;20042;-45
2022/08/25 13:24:34;;;;;;;8.98;3.20;;;;;;;;;;4952951;29;20031;-44
2022/08/25 13:27:06;;;;;;;10.88;4.03;;;;;;;;;;4945312;29;20126;-41
2022/08/25 13:29:35;;;;;;;8.80;3.45;;;;;;;;;;4952068;29;20035;-42
2022/08/25 13:32:03;;;;;;;4.53;3.20;;;;;;;;;;4953130;29;20042;-42
2022/08/25 13:34:40;;;;;;;7.70;3.03;;;;;;;;;;4952928;29;20078;-42
2022/08/25 13:40:19;;;;;;;9.02;3.38;;;;;;;;;;4952933;29;20081;-44
2022/08/25 13:42:48;;;;;;;7.90;3.30;;;;;;;;;;4952918;29;20054;-43
2022/08/25 13:45:16;;;;;;;;;;;;;;;;;;4953260;29;20046;-44
2022/08/25 13:47:43;;;;;;;16.38;5.63;;;;;;;;;;4952592;29;19925;-41
2022/08/25 13:50:27;;;;;;;11.13;3.33;;;;;;;;;;4952750;29;20044;-40
2022/08/25 13:53:10;;;;;;;11.25;3.67;;;;;;;;;;4952752;29;20356;-42
2022/08/25 13:55:47;;;;;;;10.35;3.42;;;;;;;;;;4952691;29;20058;-40
2022/08/25 13:58:35;;;;;;;14.13;3.67;;;;;;;;;;4952730;29;20035;-43
2022/08/25 14:01:18;;;;;;;12.13;3.40;;;;;;;;;;4952439;29;20031;-44
2022/08/25 14:03:46;;;;;;;7.18;3.13;;;;;;;;;;4952760;29;20037;-45
2022/08/25 14:06:14;;;;;;;10.73;3.47;;;;;;;;;;4951931;29;20046;-43
2022/08/25 14:08:58;;;;;;;7.32;3.13;;;;;;;;;;4952609;29;20145;-41
2022/08/25 14:11:31;;;;;;;13.80;3.53;;;;;;;;;;4952384;29;20423;-42
2022/08/25 14:14:03;;;;;;;13.35;3.83;;;;;;;;;;4952459;29;20027;-44
2022/08/25 14:16:32;;;;;;;10.57;3.63;;;;;;;;;;4952216;29;20027;-42
2022/08/25 14:19:00;;;;;;;12.65;3.45;;;;;;;;;;4952265;29;20435;-44
2022/08/25 14:21:28;;;;;;;13.07;4.55;;;;;;;;;;4952538;29;20062;-43
2022/08/25 14:23:55;;;;;;;8.95;3.42;;;;;;;;;;4952406;29;20028;-40
2022/08/25 14:26:21;;;;;;;9.85;3.60;;;;;;;;;;4952158;29;20027;-43
2022/08/25 14:28:47;;;;;;;17.98;4.15;;;;;;;;;;4956229;28;20051;-42
2022/08/25 14:31:34;;;;;;;8.98;3.58;;;;;;;;;;4971286;28;20038;-40
2022/08/25 14:34:01;;;;;;;9.07;3.40;;;;;;;;;;4971502;28;20037;-40
2022/08/25 14:36:31;;;;;;;15.25;3.22;;;;;;;;;;4971404;28;20565;-40
2022/08/25 14:38:58;;;;;;;12.23;3.30;;;;;;;;;;4972217;28;20117;-41
2022/08/25 14:41:25;;;;;;;8.48;3.10;;;;;;;;;;4957259;28;20106;-43
2022/08/25 14:43:52;;;;;;;12.43;3.08;;;;;;;;;;4974989;28;20031;-42
2022/08/25 14:46:24;;;;;;;7.90;3.38;;;;;;;;;;4974760;28;20050;-42
2022/08/25 14:48:54;;;;;;;13.15;3.30;;;;;;;;;;4974814;28;20031;-41
2022/08/25 14:51:21;;;;;;;5.65;3.25;;;;;;;;;;4974411;28;20031;-45
2022/08/25 14:53:47;;;;;;;10.57;2.97;;;;;;;;;;4974772;28;20022;-41
2022/08/25 14:56:13;;;;;;;8.20;3.28;;;;;;;;;;4974679;28;20594;-43
2022/08/25 14:58:39;;;;;;;11.10;3.60;;;;;;;;;;4974718;28;20023;-39
2022/08/25 15:01:06;;;;;;;7.22;3.30;;;;;;;;;;4974303;28;20038;-43
2022/08/25 15:03:37;;;;;;;9.90;3.38;;;;;;;;;;4974666;28;20478;-39
2022/08/25 15:06:04;;;;;;;10.10;3.63;;;;;;;;;;4974262;28;20039;-37
2022/08/25 15:11:14;;;;;;;7.35;2.83;;;;;;;;;;4974277;28;20044;-42
2022/08/25 15:13:40;;;;;;;10.75;3.50;;;;;;;;;;4956717;28;20487;-39
2022/08/25 15:16:07;;;;;;;12.00;3.20;;;;;;;;;;4974047;28;20558;-41